createdAt,value
2018-04-20T13:21:57.927Z,11.98
2018-04-20T13:24:30.569Z,11.88
2018-04-20T13:27:02.466Z,10.07
2018-04-20T13:29:35.102Z,12.82
2018-04-20T13:32:07.011Z,12.80
2018-04-20T13:34:39.666Z,27.08
2018-04-20T13:37:11.873Z,11.18
2018-04-20T13:39:43.785Z,12.48
2018-04-20T13:42:15.670Z,15.88
2018-04-20T13:44:48.578Z,21.67
2018-04-20T13:47:20.458Z,8.43
2018-04-20T13:49:52.354Z,8.45
2018-04-20T13:52:24.563Z,10.25
2018-04-20T13:54:56.460Z,10.60
2018-04-20T13:57:28.346Z,14.82
2018-04-20T14:00:00.241Z,8.88
2018-04-20T14:02:32.901Z,12.05
2018-04-20T14:05:05.555Z,10.38
2018-04-20T14:07:37.446Z,12.65
2018-04-20T14:10:10.102Z,11.12
2018-04-20T14:12:42.311Z,8.88
2018-04-20T14:15:14.218Z,16.73
2018-04-20T14:17:46.087Z,13.38
2018-04-20T14:20:17.979Z,13.07
2018-04-20T14:22:50.626Z,10.57
2018-04-20T14:25:22.560Z,12.32
2018-04-20T14:27:54.446Z,13.25
2018-04-20T14:30:26.339Z,15.00
2018-04-20T14:32:59.015Z,9.85
2018-04-20T14:35:31.666Z,13.07
2018-04-20T14:38:03.555Z,9.55
2018-04-20T14:40:36.446Z,9.55
2018-04-20T14:43:08.614Z,10.88
2018-04-20T14:45:40.509Z,11.65
2018-04-20T14:48:12.383Z,13.85
2018-04-20T14:50:44.270Z,13.00
2018-04-20T14:53:16.923Z,10.75
2018-04-20T14:55:48.823Z,12.52
2018-04-20T14:58:21.458Z,14.65
2018-04-20T15:00:53.351Z,10.85
2018-04-20T15:03:25.243Z,10.02
2018-04-20T15:05:57.134Z,12.70
2018-04-20T15:08:29.006Z,8.18
2018-04-20T15:11:00.898Z,17.00
2018-04-20T15:13:33.546Z,15.73
2018-04-20T15:16:05.437Z,10.50
2018-04-20T15:18:38.090Z,12.57
2018-04-20T15:21:10.298Z,13.60
2018-04-20T15:23:42.178Z,13.00
2018-04-20T15:26:14.090Z,13.00
2018-04-20T15:28:45.968Z,13.20
2018-04-20T16:01:08.275Z,12.18
2018-04-20T16:03:40.151Z,11.50
2018-04-20T16:06:12.802Z,10.27
2018-04-20T16:08:44.697Z,7.28
2018-04-20T16:11:17.345Z,10.98
2018-04-20T16:13:49.233Z,8.57
2018-04-20T16:16:21.885Z,15.63
2018-04-20T16:18:53.759Z,14.77
2018-04-20T16:21:26.412Z,15.98
2018-04-20T16:23:58.286Z,16.48
2018-04-20T16:26:30.187Z,11.32
2018-04-20T16:29:02.054Z,12.65
2018-04-20T16:31:33.947Z,9.07
2018-04-20T16:34:05.823Z,9.10
2018-04-20T16:36:37.718Z,8.25
2018-04-20T16:39:09.719Z,11.20
2018-04-20T16:41:41.483Z,7.80
2018-04-20T16:44:13.354Z,11.48
2018-04-20T16:46:46.754Z,12.50
2018-04-20T16:49:18.642Z,14.73
2018-04-20T16:51:51.298Z,10.15
2018-04-20T16:54:23.170Z,12.52
2018-04-20T16:56:55.053Z,8.63
2018-04-20T16:59:27.946Z,17.58
2018-04-20T17:01:59.830Z,10.63
2018-04-20T17:04:31.974Z,12.13
2018-04-20T17:07:03.862Z,10.07
2018-04-20T17:09:35.744Z,11.63
2018-04-20T17:12:07.684Z,10.63
2018-04-20T17:14:39.623Z,14.07
2018-04-20T17:17:12.494Z,8.63
2018-04-20T17:19:44.658Z,11.35
2018-04-20T17:22:16.547Z,8.93
2018-04-20T17:24:48.440Z,12.55
2018-04-20T17:27:20.322Z,10.85
2018-04-20T17:29:53.786Z,11.73
2018-04-20T17:32:25.676Z,11.88
2018-04-20T17:34:58.314Z,10.85
2018-04-20T17:37:30.223Z,8.50
2018-04-20T17:40:02.941Z,11.43
2018-04-20T17:42:34.841Z,9.70
2018-04-20T17:45:06.762Z,7.18
2018-04-20T17:47:38.651Z,12.68
2018-04-20T17:50:10.537Z,13.05
2018-04-20T17:52:43.185Z,9.57
2018-04-20T17:55:15.076Z,11.85
2018-04-20T17:57:47.726Z,10.55
2018-04-20T18:00:19.606Z,8.13
2018-04-20T18:02:51.512Z,8.38
2018-04-20T18:05:23.414Z,9.93
2018-04-20T18:07:55.305Z,7.82
2018-04-20T18:10:27.946Z,12.40
2018-04-20T18:12:59.842Z,9.02
2018-04-20T18:15:32.482Z,9.93
2018-04-20T18:18:04.610Z,9.50
2018-04-20T18:20:36.481Z,8.75
2018-04-20T18:23:08.382Z,10.32
2018-04-20T18:25:40.267Z,9.90
2018-04-20T18:28:12.915Z,10.57
2018-04-20T18:30:44.794Z,14.68
2018-04-20T18:33:16.679Z,9.70
2018-04-20T18:35:48.569Z,10.15
2018-04-20T18:38:20.806Z,9.82
2018-04-20T18:40:52.722Z,12.37
2018-04-20T18:43:24.619Z,10.43
2018-04-20T18:45:57.512Z,9.73
2018-04-20T18:48:29.681Z,9.15
2018-04-20T18:51:01.563Z,10.68
2018-04-20T18:53:33.447Z,9.77
2018-04-20T18:56:05.323Z,9.77
2018-04-20T18:58:37.215Z,11.25
2018-04-20T19:01:09.102Z,15.13
2018-04-20T19:03:40.998Z,9.80
2018-04-20T19:06:13.219Z,11.73
2018-04-20T19:08:45.099Z,11.82
2018-04-20T19:11:16.970Z,11.35
2018-04-20T19:13:48.866Z,11.57
2018-04-20T19:16:21.733Z,15.50
2018-04-20T19:18:53.622Z,14.07
2018-04-20T19:21:26.301Z,12.77
2018-04-20T19:23:58.971Z,18.05
2018-04-20T19:26:31.615Z,18.12
2018-04-20T19:29:03.757Z,18.50
2018-04-20T19:31:35.655Z,20.60
2018-04-20T19:34:07.546Z,15.10
2018-04-20T19:36:40.184Z,18.70
2018-04-20T19:39:12.079Z,21.67
2018-04-20T19:41:44.717Z,16.92
2018-04-20T19:44:16.658Z,15.07
2018-04-20T19:46:48.794Z,17.60
2018-04-20T19:49:20.686Z,15.65
2018-04-20T19:51:52.562Z,20.17
2018-04-20T19:54:24.455Z,14.32
2018-04-20T19:56:57.094Z,22.37
2018-04-20T19:59:28.990Z,21.33
2018-04-20T20:02:00.858Z,17.42
2018-04-20T20:04:33.762Z,23.35
2018-04-20T20:07:05.638Z,19.35
2018-04-20T20:09:37.525Z,18.05
2018-04-20T20:12:09.402Z,17.42
2018-04-20T20:14:41.306Z,16.05
2018-04-20T20:17:13.186Z,17.35
2018-04-20T20:19:45.127Z,15.43
2018-04-20T20:22:17.746Z,17.25
2018-04-20T20:24:49.659Z,17.87
2018-04-20T20:27:21.542Z,18.05
2018-04-20T20:29:53.430Z,22.23
2018-04-20T20:32:25.316Z,16.87
2018-04-20T20:34:57.210Z,17.40
2018-04-20T20:37:29.090Z,19.33
2018-04-20T20:40:00.983Z,19.83
2018-04-20T20:42:32.862Z,17.98
2018-04-20T20:45:05.523Z,16.10
2018-04-20T20:47:37.397Z,20.02
2018-04-20T20:50:10.306Z,19.15
2018-04-20T20:52:42.199Z,16.98
2018-04-20T20:55:14.091Z,19.12
2018-04-20T20:57:45.965Z,19.12
2018-04-20T21:00:18.618Z,16.87
2018-04-20T21:02:50.511Z,19.60
2018-04-20T21:05:23.162Z,17.37
2018-04-20T21:07:55.060Z,18.62
2018-04-20T21:10:26.954Z,19.27
2018-04-20T21:12:58.835Z,26.02
2018-04-20T21:15:30.722Z,25.75
2018-04-20T21:18:03.630Z,24.98
2018-04-20T21:20:35.516Z,23.77
2018-04-20T21:23:07.657Z,26.48
2018-04-20T21:25:39.555Z,23.92
2018-04-20T21:28:11.441Z,24.45
2018-04-20T21:30:43.325Z,23.67
2018-04-20T21:33:15.973Z,23.25
2018-04-20T21:35:47.868Z,23.48
2018-04-20T21:38:19.778Z,20.92
2018-04-20T21:40:51.697Z,23.02
2018-04-20T21:43:23.607Z,18.70
2018-04-20T21:45:55.494Z,27.58
2018-04-20T21:48:28.142Z,24.95
2018-04-20T21:51:00.035Z,22.98
2018-04-20T21:53:32.675Z,21.05
2018-04-20T21:56:04.571Z,21.90
2018-04-20T21:58:37.218Z,24.42
2018-04-20T22:01:09.109Z,22.20
2018-04-20T22:03:41.758Z,23.55
2018-04-20T22:06:13.663Z,24.27
2018-04-20T22:08:46.555Z,20.08
2018-04-20T22:11:18.722Z,25.90
2018-04-20T22:13:50.594Z,24.92
2018-04-20T22:16:22.486Z,23.17
2018-04-20T22:18:54.358Z,22.27
2018-04-20T22:21:26.566Z,24.30
2018-04-20T22:23:58.441Z,24.77
2018-04-20T22:26:30.339Z,24.60
2018-04-20T22:29:02.215Z,23.20
2018-04-20T22:31:34.173Z,25.98
2018-04-20T22:34:06.058Z,22.87
2018-04-20T22:36:38.718Z,27.02
2018-04-20T22:39:10.597Z,27.30
2018-04-20T22:41:43.258Z,22.27
2018-04-20T22:44:15.136Z,23.02
2018-04-20T22:46:47.794Z,29.27
2018-04-20T22:49:19.677Z,27.52
2018-04-20T22:51:52.329Z,23.85
2018-04-20T22:54:24.206Z,22.55
2018-04-20T22:56:56.858Z,21.55
2018-04-20T22:59:28.787Z,24.20
2018-04-20T23:02:01.402Z,25.90
2018-04-20T23:04:33.273Z,20.80
2018-04-20T23:07:05.166Z,24.98
2018-04-20T23:09:37.046Z,23.87
2018-04-20T23:12:08.931Z,23.65
2018-04-20T23:14:40.801Z,22.58
2018-04-20T23:17:12.690Z,24.60
2018-04-20T23:19:45.336Z,24.77
2018-04-20T23:22:17.222Z,27.60
2018-04-20T23:24:49.869Z,25.27
2018-04-20T23:27:21.766Z,25.30
2018-04-20T23:29:54.405Z,31.70
2018-04-20T23:32:26.294Z,28.30
2018-04-20T23:34:58.938Z,25.77
2018-04-20T23:37:30.829Z,31.80
2018-04-20T23:40:02.702Z,32.07
2018-04-20T23:42:35.378Z,26.07
2018-04-20T23:45:08.062Z,32.40
2018-04-20T23:47:40.722Z,30.70
2018-04-20T23:50:12.598Z,31.33
2018-04-20T23:52:45.254Z,30.60
2018-04-20T23:55:17.130Z,25.30
2018-04-20T23:57:49.784Z,28.97
